createdAt,value
2018-07-29T00:01:52.032Z,24.56
2018-07-29T00:04:18.875Z,24.52
2018-07-29T00:06:45.699Z,24.53
2018-07-29T00:09:12.856Z,24.55
2018-07-29T00:14:34.290Z,24.53
2018-07-29T00:19:51.693Z,24.46
2018-07-29T00:22:22.117Z,24.50
2018-07-29T00:24:54.156Z,24.50
2018-07-29T00:27:22.001Z,24.48
2018-07-29T00:29:48.703Z,24.49
2018-07-29T00:32:21.765Z,24.50
2018-07-29T00:34:48.553Z,24.47
2018-07-29T00:37:16.328Z,24.50
2018-07-29T00:39:44.094Z,24.49
2018-07-29T00:42:10.818Z,24.50
2018-07-29T00:44:38.397Z,24.51
2018-07-29T00:47:22.117Z,24.49
2018-07-29T00:49:48.966Z,24.46
2018-07-29T00:52:18.332Z,24.48
2018-07-29T00:54:45.060Z,24.48
2018-07-29T00:57:12.720Z,24.48
2018-07-29T00:59:40.565Z,24.46
2018-07-29T01:02:08.237Z,24.49
2018-07-29T01:04:37.220Z,24.44
2018-07-29T01:09:50.451Z,24.41
2018-07-29T01:12:25.767Z,24.43
2018-07-29T01:14:52.601Z,24.41
2018-07-29T01:17:20.897Z,24.44
2018-07-29T01:19:51.562Z,24.44
2018-07-29T01:22:21.961Z,24.45
2018-07-29T01:24:48.706Z,24.44
2018-07-29T01:27:15.590Z,24.45
2018-07-29T01:29:42.419Z,24.46
2018-07-29T01:32:09.143Z,24.43
2018-07-29T01:34:36.835Z,24.42
2018-07-29T01:37:20.770Z,24.46
2018-07-29T01:39:47.509Z,24.42
2018-07-29T01:42:14.284Z,24.44
2018-07-29T01:44:41.181Z,24.43
2018-07-29T01:47:23.642Z,24.42
2018-07-29T01:49:51.497Z,24.38
2018-07-29T01:52:18.229Z,24.41
2018-07-29T01:54:45.046Z,24.40
2018-07-29T01:57:11.748Z,24.40
2018-07-29T01:59:50.763Z,24.39
2018-07-29T02:02:18.456Z,24.40
2018-07-29T02:04:51.047Z,24.38
2018-07-29T02:07:17.816Z,24.40
2018-07-29T02:09:44.681Z,24.40
2018-07-29T02:12:11.486Z,24.41
2018-07-29T02:14:38.640Z,24.40
2018-07-29T02:17:06.252Z,24.39
2018-07-29T02:19:33.403Z,24.41
2018-07-29T02:22:00.227Z,24.37
2018-07-29T02:24:27.080Z,24.38
2018-07-29T02:33:21.735Z,24.36
2018-07-29T02:35:50.553Z,24.38
2018-07-29T02:38:21.510Z,24.39
2018-07-29T02:40:52.134Z,24.38
2018-07-29T02:43:18.870Z,24.37
2018-07-29T02:45:45.588Z,24.38
2018-07-29T02:48:12.385Z,24.37
2018-07-29T02:50:39.216Z,24.38
2018-07-29T02:53:22.063Z,24.39
2018-07-29T02:55:48.789Z,24.38
2018-07-29T03:01:03.354Z,24.37
2018-07-29T03:03:31.062Z,24.38
2018-07-29T03:05:57.805Z,24.36
2018-07-29T03:08:24.547Z,24.35
2018-07-29T03:10:52.097Z,24.34
2018-07-29T03:13:18.798Z,24.35
2018-07-29T03:15:45.502Z,24.36
2018-07-29T03:18:12.207Z,24.36
2018-07-29T03:20:39.058Z,24.34
2018-07-29T03:23:07.183Z,24.37
2018-07-29T03:25:33.967Z,24.35
2018-07-29T03:28:00.865Z,24.36
2018-07-29T03:30:27.659Z,24.34
2018-07-29T03:32:54.388Z,24.35
2018-07-29T03:35:22.011Z,24.32
2018-07-29T03:37:52.106Z,24.33
2018-07-29T03:40:20.375Z,24.33
2018-07-29T03:42:48.002Z,24.33
2018-07-29T03:45:14.946Z,24.30
2018-07-29T03:47:49.357Z,24.30
2018-07-29T03:50:17.577Z,24.33
2018-07-29T03:52:44.302Z,24.28
2018-07-29T03:55:11.060Z,24.28
2018-07-29T03:57:56.997Z,24.32
2018-07-29T04:00:34.577Z,24.28
2018-07-29T04:03:15.514Z,24.29
2018-07-29T04:05:48.351Z,24.26
2018-07-29T04:08:21.751Z,24.28
2018-07-29T04:10:48.607Z,24.28
2018-07-29T04:13:15.337Z,24.27
2018-07-29T04:15:52.034Z,24.27
2018-07-29T04:18:18.840Z,24.26
2018-07-29T04:20:45.698Z,24.26
2018-07-29T04:23:17.702Z,24.25
2018-07-29T04:25:45.702Z,24.28
2018-07-29T04:28:12.435Z,24.26
2018-07-29T04:30:40.049Z,24.26
2018-07-29T04:33:07.854Z,24.26
2018-07-29T04:35:34.591Z,24.26
2018-07-29T04:38:01.306Z,24.24
2018-07-29T04:40:28.978Z,24.26
2018-07-29T04:42:55.713Z,24.26
2018-07-29T04:45:22.712Z,24.25
2018-07-29T04:47:58.592Z,24.26
2018-07-29T04:50:25.617Z,24.24
2018-07-29T04:53:09.027Z,24.27
2018-07-29T04:55:37.165Z,24.25
2018-07-29T04:58:14.232Z,24.27
2018-07-29T05:00:51.843Z,24.25
2018-07-29T05:03:21.733Z,24.24
2018-07-29T05:05:48.588Z,24.26
2018-07-29T05:08:15.430Z,24.26
2018-07-29T05:10:42.172Z,24.25
2018-07-29T05:13:09.026Z,24.28
2018-07-29T05:15:35.870Z,24.25
2018-07-29T05:18:02.775Z,24.26
2018-07-29T05:23:18.936Z,24.24
2018-07-29T05:25:45.802Z,24.26
2018-07-29T05:28:12.642Z,24.25
2018-07-29T05:33:36.387Z,24.25
2018-07-29T05:36:03.426Z,24.24
2018-07-29T05:38:30.290Z,24.22
2018-07-29T05:40:56.979Z,24.27
2018-07-29T05:43:23.804Z,24.25
2018-07-29T05:45:51.126Z,24.25
